ADDS TAF Board (Experimental) INFO Settings
IDs:

KMCI - Kansas City Intl, MO, US

Issued at 0726 UTC 30 May 2015
Updated at: 0842 UTC 30 May 2015
Time0835Z 30/09Z 30/10Z 30/11Z 30/12Z 30/13Z 30/14Z 30/15Z 30/16Z 30/17Z 30/18Z 30/19Z 30/20Z 30/21Z
Type OBS PRVL PRVL PRVL PRVL PRVL PRVL PRVL PRVL PRVL PRVL PRVL PRVL PRVL
VIS 10 3 >6 >6 >6 >6 >6 >6 >6 >6 >6 >6 >6 >6
CIG 8 12 8 8 8 8 8 8 8 8 25 25 25 25
Cover OVC OVC OVC OVC OVC OVC OVC OVC OVC OVC OVC OVC OVC OVC
FltCat IFR MVFR IFR IFR IFR IFR IFR IFR IFR IFR MVFR MVFR MVFR MVFR
WX -- BR VCSH -- -- -- -- -- -- -- -- -- -- -- --
WDir 340 VRB 330 330 330 330 330 330 330 330 340 340 340 340
WSpd 9 3 13 13 13 13 13 13 13 13 14 14 14 14
WGst -- -- -- -- -- -- -- -- -- -- 22 22 22 22
R01/19
XWnd 5 VRB 9 9 9 9 9 9 9 9 8 8 8 8
XGst -- -- -- -- -- -- -- -- -- -- 12 12 12 12
HWnd 8 VRB 10 10 10 10 10 10 10 10 12 12 12 12
HGst -- -- -- -- -- -- -- -- -- -- 18 18 18 18
R09/27
XWnd 8 VRB 11 11 11 11 11 11 11 11 13 13 13 13
XGst -- -- -- -- -- -- -- -- -- -- 20 20 20 20
HWnd -4 VRB -8 -8 -8 -8 -8 -8 -8 -8 -6 -6 -6 -6
HGst -- -- -- -- -- -- -- -- -- -- -10 -10 -10 -10

NOTE: TEMPO conditions in [brackets]. Keep in mind TEMPO conditions might be better (lower impact) than prevailing conditions.

Raw TAF
KMCI 300726Z 3007/3106 VRB03KT 3SM BR VCSH BKN012 OVC025
  FM301000 33013KT P6SM OVC008
  FM301800 34014G22KT P6SM OVC025


Raw METAR
KMCI 300835Z 34009KT 10SM BKN008 OVC016 18/17 A2997 RMK AO2 T01780172 $
KMCI 300753Z 34003KT 5SM BR BKN003 BKN010 OVC014 18/18 A2997 RMK AO2 SLP141 T01780178 $
KMCI 300728Z 26004KT 6SM BR BKN003 OVC010 18/18 A2997 RMK AO2 T01780178 $
KMCI 300704Z 00000KT 3SM BR BKN012 BKN021 OVC026 17/17 A2997 RMK AO2 T01720172
KMCI 300653Z 19003KT 6SM BR SCT023 OVC150 17/17 A2997 RMK AO2 SLP143 T01670167
KMCI 300553Z 00000KT 7SM BKN200 17/17 A2997 RMK AO2 SLP143 T01720172 10206 20167 402110167 58001

METAR Board
Radar Display
Forecast Discussion

TAF Board Legend

Potential Impact
Threat None Slight Moderate High
Visibility (sm) ≥5.1 5.1>X≥3 3>X≥1 <1
Ceiling (100 ft) ≥30.1 30.1>X≥10 10>X≥5 <5
Wind Speed (kt) <10 10≤X<20 20≤X<30 ≥30
Wind Gust (kt) <15 15≤X<25 25≤X<35 ≥35
Weather No Wx Reported VCTS,-TS,-FZRA,SN TS,FZRA +TS,+FZRA,+SN